createdAt,value
2017-06-16T00:00:32.195Z,0
2017-06-16T00:01:31.879Z,0
2017-06-16T00:02:31.880Z,0
2017-06-16T00:03:32.185Z,0
2017-06-16T00:04:32.182Z,0
2017-06-16T00:05:32.179Z,0
2017-06-16T00:06:32.187Z,0
2017-06-16T00:07:32.214Z,0
2017-06-16T00:08:32.182Z,0
2017-06-16T00:09:32.184Z,0
2017-06-16T00:10:32.176Z,0
2017-06-16T00:11:32.183Z,0
2017-06-16T00:12:32.179Z,0
2017-06-16T00:13:31.876Z,0
2017-06-16T00:14:32.183Z,0
2017-06-16T00:15:31.873Z,0
2017-06-16T00:16:31.879Z,0
2017-06-16T00:17:32.177Z,0
2017-06-16T00:18:31.871Z,0
2017-06-16T00:19:31.869Z,0
2017-06-16T00:20:32.181Z,0
2017-06-16T00:21:32.177Z,0
2017-06-16T00:22:32.174Z,0
2017-06-16T00:23:32.167Z,0
2017-06-16T00:24:32.166Z,0
2017-06-16T00:25:31.862Z,0
2017-06-16T00:26:32.168Z,0
2017-06-16T00:27:32.172Z,0
2017-06-16T00:28:31.867Z,0
2017-06-16T00:29:32.170Z,0
2017-06-16T00:30:32.164Z,0
2017-06-16T00:31:31.857Z,0
2017-06-16T00:32:31.867Z,0
2017-06-16T00:33:32.164Z,0
2017-06-16T00:34:32.162Z,0
2017-06-16T00:35:31.865Z,0
2017-06-16T00:36:32.159Z,0
2017-06-16T00:37:31.859Z,0
2017-06-16T00:38:31.856Z,0
2017-06-16T00:39:31.857Z,0
2017-06-16T00:40:32.156Z,0
2017-06-16T00:41:32.162Z,0
2017-06-16T00:42:32.155Z,0
2017-06-16T00:43:32.158Z,0
2017-06-16T00:44:32.158Z,0
2017-06-16T00:45:32.162Z,0
2017-06-16T00:46:32.156Z,0
2017-06-16T00:47:31.849Z,0
2017-06-16T00:48:31.850Z,0
2017-06-16T00:49:32.154Z,0
2017-06-16T00:50:32.153Z,0
2017-06-16T00:51:32.153Z,0
2017-06-16T00:52:31.843Z,0
2017-06-16T00:53:32.149Z,0
2017-06-16T00:54:32.152Z,0
2017-06-16T00:55:31.839Z,0
2017-06-16T00:56:31.846Z,0
2017-06-16T00:57:31.844Z,0
2017-06-16T00:58:31.842Z,0
2017-06-16T00:59:31.847Z,0
2017-06-16T01:00:31.842Z,0
2017-06-16T01:01:32.157Z,0
2017-06-16T01:02:32.144Z,0
2017-06-16T01:03:32.147Z,0
2017-06-16T01:04:32.147Z,0
2017-06-16T01:05:31.842Z,0
2017-06-16T01:06:32.141Z,0
2017-06-16T01:07:32.168Z,0
2017-06-16T01:08:32.141Z,0
2017-06-16T01:09:32.140Z,0
2017-06-16T01:10:32.140Z,0
2017-06-16T01:11:32.139Z,0
2017-06-16T01:12:32.135Z,0
2017-06-16T01:13:32.138Z,0
2017-06-16T01:14:32.135Z,0
2017-06-16T01:15:31.828Z,0
2017-06-16T01:16:32.144Z,0
2017-06-16T01:17:32.131Z,0
2017-06-16T01:18:31.836Z,0
2017-06-16T01:19:32.129Z,0
2017-06-16T01:20:32.132Z,0
2017-06-16T01:21:32.135Z,0
2017-06-16T01:22:31.827Z,0
2017-06-16T01:23:32.130Z,0
2017-06-16T01:24:31.828Z,0
2017-06-16T01:25:32.130Z,0
2017-06-16T01:26:32.129Z,0
2017-06-16T01:27:32.125Z,0
2017-06-16T01:28:32.126Z,0
2017-06-16T01:29:32.130Z,0
2017-06-16T01:30:32.123Z,0
2017-06-16T01:31:31.515Z,0
2017-06-16T01:32:32.119Z,0
2017-06-16T01:33:31.819Z,0
2017-06-16T01:34:32.124Z,0
2017-06-16T01:35:32.163Z,0
2017-06-16T01:36:31.814Z,0
2017-06-16T01:37:31.822Z,0
2017-06-16T01:38:31.811Z,0
2017-06-16T01:39:32.138Z,0
2017-06-16T01:40:31.809Z,0
2017-06-16T01:41:32.116Z,0
2017-06-16T01:42:32.114Z,0
2017-06-16T01:43:31.813Z,0
2017-06-16T01:44:31.807Z,0
2017-06-16T01:45:31.503Z,0
2017-06-16T01:46:31.811Z,0
2017-06-16T01:47:32.114Z,0
2017-06-16T01:48:31.805Z,0
2017-06-16T01:49:31.500Z,0
2017-06-16T01:50:31.803Z,0
2017-06-16T01:51:32.113Z,0
2017-06-16T01:52:31.800Z,0
2017-06-16T01:53:32.105Z,0
2017-06-16T01:54:31.800Z,0
2017-06-16T01:55:32.316Z,0
2017-06-16T01:56:31.801Z,0
2017-06-16T01:57:32.106Z,0
2017-06-16T01:58:32.104Z,0
2017-06-16T01:59:32.103Z,0
2017-06-16T02:00:32.101Z,0
2017-06-16T02:01:31.793Z,0
2017-06-16T02:02:32.099Z,0
2017-06-16T02:03:32.101Z,0
2017-06-16T02:04:32.102Z,0
2017-06-16T02:05:31.828Z,0
2017-06-16T02:06:32.095Z,0
2017-06-16T02:07:32.116Z,0
2017-06-16T02:08:31.790Z,0
2017-06-16T02:09:32.095Z,0
2017-06-16T02:10:31.797Z,0
2017-06-16T02:11:32.095Z,0
2017-06-16T02:12:31.784Z,0
2017-06-16T02:13:32.087Z,0
2017-06-16T02:14:31.787Z,0
2017-06-16T02:15:32.091Z,0
2017-06-16T02:16:31.784Z,0
2017-06-16T02:17:31.776Z,0
2017-06-16T02:18:31.778Z,0
2017-06-16T02:19:31.472Z,0
2017-06-16T02:20:32.087Z,0
2017-06-16T02:21:32.085Z,0
2017-06-16T02:22:32.082Z,0
2017-06-16T02:23:32.082Z,0
2017-06-16T02:24:32.076Z,0
2017-06-16T02:25:31.777Z,0
2017-06-16T02:26:32.083Z,0
2017-06-16T02:27:32.082Z,0
2017-06-16T02:28:32.078Z,0
2017-06-16T02:29:32.078Z,0
2017-06-16T02:30:32.078Z,0
2017-06-16T02:31:32.078Z,0
2017-06-16T02:32:32.076Z,0
2017-06-16T02:33:32.077Z,0
2017-06-16T02:34:31.765Z,0
2017-06-16T02:35:32.074Z,0
2017-06-16T02:36:31.763Z,0
2017-06-16T02:37:31.771Z,0
2017-06-16T02:38:32.070Z,0
2017-06-16T02:39:32.069Z,0
2017-06-16T02:40:32.071Z,0
2017-06-16T02:41:31.767Z,0
2017-06-16T02:42:31.455Z,0
2017-06-16T02:43:31.762Z,0
2017-06-16T02:44:31.761Z,0
2017-06-16T02:45:32.063Z,0
2017-06-16T02:46:32.058Z,0
2017-06-16T02:47:32.064Z,0
2017-06-16T02:48:31.759Z,0
2017-06-16T02:49:32.058Z,0
2017-06-16T02:50:31.755Z,0
2017-06-16T02:51:31.449Z,0
2017-06-16T02:52:32.056Z,0
2017-06-16T02:53:32.057Z,0
2017-06-16T02:54:31.754Z,0
2017-06-16T02:55:32.057Z,4
2017-06-16T02:56:31.752Z,4
2017-06-16T02:57:31.743Z,0
2017-06-16T02:58:32.062Z,4
2017-06-16T02:59:32.050Z,4
2017-06-16T03:00:32.053Z,4
2017-06-16T03:01:32.051Z,4
2017-06-16T03:02:32.047Z,4
2017-06-16T03:03:31.439Z,4
2017-06-16T03:04:31.742Z,4
2017-06-16T03:05:32.047Z,4
2017-06-16T03:06:31.435Z,4
2017-06-16T03:07:32.064Z,4
2017-06-16T03:08:32.048Z,4
2017-06-16T03:09:32.045Z,4
2017-06-16T03:10:32.043Z,4
2017-06-16T03:11:32.044Z,8
2017-06-16T03:12:32.047Z,8
2017-06-16T03:13:31.429Z,8
2017-06-16T03:14:32.042Z,8
2017-06-16T03:15:31.738Z,12
2017-06-16T03:16:31.732Z,12
2017-06-16T03:17:32.036Z,8
2017-06-16T03:18:32.038Z,8
2017-06-16T03:19:32.034Z,8
2017-06-16T03:20:31.732Z,12
2017-06-16T03:21:32.034Z,12
2017-06-16T03:22:32.035Z,16
2017-06-16T03:23:32.033Z,16
2017-06-16T03:24:32.032Z,28
2017-06-16T03:25:32.036Z,40
2017-06-16T03:26:31.719Z,52
2017-06-16T03:27:31.726Z,60
2017-06-16T03:28:32.026Z,68
2017-06-16T03:29:31.722Z,72
2017-06-16T03:30:32.020Z,76
2017-06-16T03:31:32.024Z,76
2017-06-16T03:32:31.714Z,72
2017-06-16T03:33:32.024Z,64
2017-06-16T03:34:32.020Z,68
2017-06-16T03:35:31.712Z,80
2017-06-16T03:36:32.023Z,92
2017-06-16T03:37:31.714Z,108
2017-06-16T03:38:32.020Z,128
2017-06-16T03:39:32.017Z,148
2017-06-16T03:40:32.020Z,164
2017-06-16T03:41:32.016Z,180
2017-06-16T03:42:32.018Z,192
2017-06-16T03:43:31.711Z,204
2017-06-16T03:44:32.013Z,224
2017-06-16T03:45:32.015Z,248
2017-06-16T03:46:32.024Z,276
2017-06-16T03:47:32.007Z,308
2017-06-16T03:48:31.704Z,332
2017-06-16T03:49:32.010Z,348
2017-06-16T03:50:32.009Z,372
2017-06-16T03:51:31.699Z,404
2017-06-16T03:52:32.005Z,432
2017-06-16T03:53:31.696Z,456
2017-06-16T03:54:31.427Z,480
2017-06-16T03:55:32.012Z,488
2017-06-16T03:56:32.007Z,472
2017-06-16T03:57:32.004Z,448
2017-06-16T03:58:31.389Z,420
2017-06-16T03:59:31.998Z,380
2017-06-16T04:00:32.000Z,324
2017-06-16T04:01:31.386Z,300
2017-06-16T04:02:31.388Z,332
2017-06-16T04:03:31.692Z,396
2017-06-16T04:04:31.694Z,436
2017-06-16T04:05:31.999Z,464
2017-06-16T04:06:31.996Z,488
2017-06-16T04:07:32.023Z,520
2017-06-16T04:08:31.689Z,564
2017-06-16T04:09:31.990Z,620
2017-06-16T04:10:31.381Z,684
2017-06-16T04:11:31.687Z,760
2017-06-16T04:12:31.682Z,836
2017-06-16T04:13:31.988Z,908
2017-06-16T04:14:31.989Z,888
2017-06-16T04:15:31.680Z,856
2017-06-16T04:16:31.680Z,840
2017-06-16T04:17:31.986Z,916
2017-06-16T04:18:31.677Z,1020
2017-06-16T04:19:31.984Z,1080
2017-06-16T04:20:31.370Z,1120
2017-06-16T04:21:31.985Z,1152
2017-06-16T04:22:31.984Z,1092
2017-06-16T04:23:31.673Z,1048
2017-06-16T04:24:31.684Z,1156
2017-06-16T04:25:31.369Z,1192
2017-06-16T04:26:31.982Z,1148
2017-06-16T04:27:31.369Z,1164
2017-06-16T04:28:31.981Z,1112
2017-06-16T04:29:31.673Z,1068
2017-06-16T04:30:31.670Z,1012
2017-06-16T04:31:31.976Z,1004
2017-06-16T04:32:31.973Z,1004
2017-06-16T04:33:31.974Z,1104
2017-06-16T04:34:31.061Z,1164
2017-06-16T04:35:31.666Z,1024
2017-06-16T04:36:31.972Z,788
2017-06-16T04:37:31.665Z,572
2017-06-16T04:38:31.972Z,544
2017-06-16T04:39:31.967Z,612
2017-06-16T04:40:31.968Z,412
2017-06-16T04:41:31.970Z,236
2017-06-16T04:42:31.964Z,432
2017-06-16T04:43:31.962Z,552
2017-06-16T04:44:31.656Z,316
2017-06-16T04:45:31.960Z,320
2017-06-16T04:46:31.966Z,512
2017-06-16T04:47:31.659Z,696
2017-06-16T04:48:31.654Z,392
2017-06-16T04:49:31.657Z,252
2017-06-16T04:50:31.662Z,352
2017-06-16T04:51:31.959Z,488
2017-06-16T04:52:31.348Z,952
2017-06-16T04:53:31.958Z,1040
2017-06-16T04:54:31.654Z,1172
2017-06-16T04:55:31.653Z,1312
2017-06-16T04:56:31.347Z,1172
2017-06-16T04:57:31.955Z,1248
2017-06-16T04:58:31.647Z,1048
2017-06-16T04:59:31.960Z,1004
2017-06-16T05:00:31.957Z,764
2017-06-16T05:01:31.339Z,416
2017-06-16T05:02:31.950Z,284
2017-06-16T05:03:31.956Z,292
2017-06-16T05:04:31.646Z,424
2017-06-16T05:05:31.644Z,504
2017-06-16T05:06:31.951Z,464
2017-06-16T05:07:31.337Z,504
2017-06-16T05:08:31.642Z,612
2017-06-16T05:09:31.650Z,760
2017-06-16T05:10:31.946Z,1048
2017-06-16T05:11:31.946Z,1168
2017-06-16T05:12:31.636Z,1060
2017-06-16T05:13:31.645Z,988
2017-06-16T05:14:31.949Z,1024
2017-06-16T05:15:31.945Z,1140
2017-06-16T05:16:31.942Z,1196
2017-06-16T05:17:31.638Z,1152
2017-06-16T05:18:31.638Z,1100
2017-06-16T05:19:31.635Z,972
2017-06-16T05:20:31.631Z,804
2017-06-16T05:21:31.633Z,780
2017-06-16T05:22:31.634Z,844
2017-06-16T05:23:31.628Z,808
2017-06-16T05:24:31.936Z,624
2017-06-16T05:25:31.937Z,564
2017-06-16T05:26:31.934Z,624
2017-06-16T05:27:31.630Z,684
2017-06-16T05:28:31.933Z,720
2017-06-16T05:29:31.627Z,672
2017-06-16T05:30:31.930Z,684
2017-06-16T05:31:31.624Z,616
2017-06-16T05:32:31.931Z,492
2017-06-16T05:33:31.931Z,480
2017-06-16T05:34:31.931Z,620
2017-06-16T05:35:31.934Z,856
2017-06-16T05:36:31.929Z,876
2017-06-16T05:37:31.621Z,672
2017-06-16T05:38:31.622Z,668
2017-06-16T05:39:31.926Z,764
2017-06-16T05:40:31.928Z,752
2017-06-16T05:41:31.924Z,680
2017-06-16T05:42:31.927Z,620
2017-06-16T05:43:31.930Z,688
2017-06-16T05:44:31.616Z,844
2017-06-16T05:45:31.919Z,764
2017-06-16T05:46:31.919Z,716
2017-06-16T05:47:31.924Z,1004
2017-06-16T05:48:31.615Z,1348
2017-06-16T05:49:31.612Z,1072
2017-06-16T05:50:31.961Z,736
2017-06-16T05:51:31.920Z,680
2017-06-16T05:52:31.609Z,808
2017-06-16T05:53:31.611Z,1320
2017-06-16T05:54:31.913Z,1292
2017-06-16T05:55:31.643Z,1328
2017-06-16T05:56:31.601Z,1064
2017-06-16T05:57:31.917Z,852
2017-06-16T05:58:31.606Z,592
2017-06-16T05:59:31.301Z,524
2017-06-16T06:00:31.300Z,580
2017-06-16T06:01:31.298Z,492
2017-06-16T06:02:31.919Z,396
2017-06-16T06:03:31.598Z,624
2017-06-16T06:04:31.292Z,656
2017-06-16T06:05:31.907Z,512
2017-06-16T06:06:31.907Z,276
2017-06-16T06:07:31.924Z,212
2017-06-16T06:08:31.906Z,264
2017-06-16T06:09:31.597Z,368
2017-06-16T06:10:31.291Z,420
2017-06-16T06:11:31.595Z,408
2017-06-16T06:12:31.592Z,376
2017-06-16T06:13:31.594Z,380
2017-06-16T06:14:31.288Z,428
2017-06-16T06:15:31.595Z,444
2017-06-16T06:16:31.901Z,436
2017-06-16T06:17:31.910Z,368
2017-06-16T06:18:31.896Z,340
2017-06-16T06:19:31.894Z,352
2017-06-16T06:20:31.587Z,348
2017-06-16T06:21:31.592Z,380
2017-06-16T06:22:31.893Z,356
2017-06-16T06:23:31.589Z,324
2017-06-16T06:24:31.581Z,392
2017-06-16T06:25:31.891Z,572
2017-06-16T06:26:31.887Z,704
2017-06-16T06:27:31.276Z,788
2017-06-16T06:28:31.581Z,772
2017-06-16T06:29:31.581Z,636
2017-06-16T06:30:31.893Z,644
2017-06-16T06:31:31.886Z,804
2017-06-16T06:32:31.894Z,1000
2017-06-16T06:33:31.889Z,1144
2017-06-16T06:34:31.574Z,1240
2017-06-16T06:35:31.878Z,1272
2017-06-16T06:36:31.877Z,1028
2017-06-16T06:37:31.579Z,1176
2017-06-16T06:38:31.877Z,1440
2017-06-16T06:39:31.878Z,1756
2017-06-16T06:40:31.878Z,2060
2017-06-16T06:41:31.265Z,2096
2017-06-16T06:42:31.876Z,1828
2017-06-16T06:43:31.575Z,2124
2017-06-16T06:44:31.874Z,2468
2017-06-16T06:45:31.871Z,2264
2017-06-16T06:46:31.872Z,2420
2017-06-16T06:47:31.569Z,2284
2017-06-16T06:48:31.265Z,2052
2017-06-16T06:49:31.877Z,2692
2017-06-16T06:50:31.872Z,3420
2017-06-16T06:51:31.870Z,3820
2017-06-16T06:52:31.565Z,4580
2017-06-16T06:53:31.608Z,5680
2017-06-16T06:54:31.870Z,6884
2017-06-16T06:55:31.297Z,8932
2017-06-16T06:56:31.866Z,23200
2017-06-16T06:57:31.559Z,14496
2017-06-16T06:58:31.864Z,18048
2017-06-16T06:59:31.867Z,19296
2017-06-16T07:00:31.867Z,11760
2017-06-16T07:01:31.561Z,12328
2017-06-16T07:02:31.594Z,8188
2017-06-16T07:03:31.865Z,10200
2017-06-16T07:04:31.866Z,8980
2017-06-16T07:05:31.867Z,13108
2017-06-16T07:06:31.561Z,21024
2017-06-16T07:07:31.559Z,6860
2017-06-16T07:08:31.560Z,7660
2017-06-16T07:09:31.864Z,10656
2017-06-16T07:10:31.559Z,13296
2017-06-16T07:11:31.866Z,14348
2017-06-16T07:12:31.560Z,10644
2017-06-16T07:13:31.867Z,7252
2017-06-16T07:14:31.558Z,7460
2017-06-16T07:15:31.870Z,11452
2017-06-16T07:16:31.566Z,8868
2017-06-16T07:17:31.868Z,10036
2017-06-16T07:18:31.564Z,8444
2017-06-16T07:19:31.565Z,9952
2017-06-16T07:20:31.873Z,6852
2017-06-16T07:21:31.880Z,4804
2017-06-16T07:22:31.569Z,4640
2017-06-16T07:23:31.876Z,3788
2017-06-16T07:24:31.874Z,3076
2017-06-16T07:25:31.571Z,3752
2017-06-16T07:26:31.575Z,3400
2017-06-16T07:27:31.573Z,4812
2017-06-16T07:28:31.877Z,8108
2017-06-16T07:29:31.580Z,6200
2017-06-16T07:30:31.575Z,6016
2017-06-16T07:31:31.880Z,9440
2017-06-16T07:32:31.885Z,5276
2017-06-16T07:33:31.613Z,5008
2017-06-16T07:34:31.879Z,5828
2017-06-16T07:35:31.575Z,9660
2017-06-16T07:36:31.887Z,9276
2017-06-16T07:37:31.583Z,8844
2017-06-16T07:38:31.887Z,6200
2017-06-16T07:39:31.586Z,7536
2017-06-16T07:40:31.583Z,7744
2017-06-16T07:41:31.588Z,4408
2017-06-16T07:42:31.277Z,4092
2017-06-16T07:43:31.285Z,5512
2017-06-16T07:44:31.894Z,5152
2017-06-16T07:45:31.277Z,4840
2017-06-16T07:46:31.896Z,4904
2017-06-16T07:47:31.283Z,4372
2017-06-16T07:48:31.597Z,2896
2017-06-16T07:49:31.594Z,2252
2017-06-16T07:50:31.899Z,2796
2017-06-16T07:51:31.901Z,2972
2017-06-16T07:52:31.904Z,3248
2017-06-16T07:53:31.899Z,3612
2017-06-16T07:54:31.899Z,3692
2017-06-16T07:55:31.595Z,3772
2017-06-16T07:56:31.595Z,3724
2017-06-16T07:57:31.905Z,3440
2017-06-16T07:58:31.906Z,3052
2017-06-16T07:59:31.600Z,4160
2017-06-16T08:00:31.907Z,4204
2017-06-16T08:01:31.909Z,4400
2017-06-16T08:02:31.908Z,4456
2017-06-16T08:03:31.599Z,4724
2017-06-16T08:04:31.600Z,6236
2017-06-16T08:05:31.607Z,6372
2017-06-16T08:06:31.910Z,6840
2017-06-16T08:07:31.607Z,7256
2017-06-16T08:08:31.301Z,7096
2017-06-16T08:09:31.613Z,6728
2017-06-16T08:10:31.911Z,5644
2017-06-16T08:11:31.914Z,4696
2017-06-16T08:12:31.916Z,4916
2017-06-16T08:13:31.302Z,4924
2017-06-16T08:14:31.914Z,4844
2017-06-16T08:15:31.611Z,4068
2017-06-16T08:16:31.912Z,3740
2017-06-16T08:17:31.918Z,5204
2017-06-16T08:18:31.616Z,4576
2017-06-16T08:19:31.623Z,4272
2017-06-16T08:20:31.613Z,4200
2017-06-16T08:21:31.925Z,3904
2017-06-16T08:22:31.924Z,4272
2017-06-16T08:23:31.622Z,4912
2017-06-16T08:24:31.921Z,5496
2017-06-16T08:25:31.924Z,5548
2017-06-16T08:26:31.617Z,5032
2017-06-16T08:27:31.927Z,4340
2017-06-16T08:28:31.624Z,4456
2017-06-16T08:29:31.006Z,4464
2017-06-16T08:30:31.623Z,4492
2017-06-16T08:31:31.933Z,6164
2017-06-16T08:32:31.623Z,6760
2017-06-16T08:33:31.933Z,6384
2017-06-16T08:34:31.930Z,6504
2017-06-16T08:35:31.931Z,6432
2017-06-16T08:36:31.931Z,4604
2017-06-16T08:37:31.931Z,3596
2017-06-16T08:38:31.626Z,3496
2017-06-16T08:39:31.323Z,5576
2017-06-16T08:40:31.324Z,4392
2017-06-16T08:41:31.930Z,3712
2017-06-16T08:42:31.324Z,4616
2017-06-16T08:43:31.939Z,5288
2017-06-16T08:44:31.937Z,5348
2017-06-16T08:45:31.939Z,5304
2017-06-16T08:46:31.941Z,4976
2017-06-16T08:47:31.936Z,3560
2017-06-16T08:48:31.637Z,3832
2017-06-16T08:49:31.635Z,3496
2017-06-16T08:50:31.948Z,3560
2017-06-16T08:51:31.943Z,3316
2017-06-16T08:52:31.947Z,3040
2017-06-16T08:53:31.637Z,3360
2017-06-16T08:54:31.980Z,3708
2017-06-16T08:55:31.943Z,3980
2017-06-16T08:56:31.642Z,4296
2017-06-16T08:57:31.643Z,4840
2017-06-16T08:58:31.947Z,5004
2017-06-16T08:59:31.945Z,5284
2017-06-16T09:00:31.642Z,5416
2017-06-16T09:01:31.340Z,5240
2017-06-16T09:02:31.645Z,4888
2017-06-16T09:03:31.959Z,4760
2017-06-16T09:04:31.649Z,4196
2017-06-16T09:05:31.645Z,4196
2017-06-16T09:06:31.647Z,4080
2017-06-16T09:07:31.364Z,4964
2017-06-16T09:08:31.344Z,5436
2017-06-16T09:09:31.647Z,5908
2017-06-16T09:10:31.343Z,5236
2017-06-16T09:11:31.960Z,4556
2017-06-16T09:12:31.957Z,4068
2017-06-16T09:13:31.955Z,4352
2017-06-16T09:14:31.960Z,4452
2017-06-16T09:15:31.348Z,4564
2017-06-16T09:16:31.658Z,5120
2017-06-16T09:17:31.658Z,4940
2017-06-16T09:18:31.965Z,4688
2017-06-16T09:19:31.659Z,4796
2017-06-16T09:20:31.972Z,4836
2017-06-16T09:21:31.663Z,4636
2017-06-16T09:22:31.660Z,4492
2017-06-16T09:23:31.965Z,4288
2017-06-16T09:24:31.967Z,4288
2017-06-16T09:25:31.967Z,4304
2017-06-16T09:26:31.965Z,5184
2017-06-16T09:27:31.969Z,5508
2017-06-16T09:28:31.966Z,5388
2017-06-16T09:29:31.967Z,5120
2017-06-16T09:30:31.968Z,4640
2017-06-16T09:31:31.975Z,3796
2017-06-16T09:32:31.672Z,4040
2017-06-16T09:33:31.667Z,4660
2017-06-16T09:34:31.971Z,4936
2017-06-16T09:35:31.669Z,4916
2017-06-16T09:36:31.668Z,4572
2017-06-16T09:37:31.671Z,3828
2017-06-16T09:38:31.673Z,4088
2017-06-16T09:39:31.978Z,4340
2017-06-16T09:40:31.977Z,4544
2017-06-16T09:41:31.980Z,4744
2017-06-16T09:42:31.980Z,3948
2017-06-16T09:43:31.673Z,3444
2017-06-16T09:44:31.368Z,3264
2017-06-16T09:45:31.980Z,3356
2017-06-16T09:46:31.682Z,3004
2017-06-16T09:47:31.988Z,3228
2017-06-16T09:48:31.986Z,2928
2017-06-16T09:49:31.982Z,3132
2017-06-16T09:50:31.374Z,3224
2017-06-16T09:51:31.988Z,3112
2017-06-16T09:52:31.986Z,2888
2017-06-16T09:53:31.685Z,2856
2017-06-16T09:54:31.992Z,2816
2017-06-16T09:55:31.682Z,2520
2017-06-16T09:56:31.994Z,2712
2017-06-16T09:57:31.680Z,2972
2017-06-16T09:58:31.689Z,3500
2017-06-16T09:59:31.693Z,3484
2017-06-16T10:00:31.993Z,3292
2017-06-16T10:01:31.997Z,3300
2017-06-16T10:02:31.996Z,3816
2017-06-16T10:03:31.996Z,4116
2017-06-16T10:04:32.008Z,3484
2017-06-16T10:05:31.995Z,2680
2017-06-16T10:06:32.041Z,2776
2017-06-16T10:07:31.997Z,2916
2017-06-16T10:08:31.694Z,3148
2017-06-16T10:09:31.387Z,3068
2017-06-16T10:10:31.693Z,3512
2017-06-16T10:11:31.692Z,4088
2017-06-16T10:12:31.386Z,3916
2017-06-16T10:13:31.695Z,3332
2017-06-16T10:14:32.040Z,2980
2017-06-16T10:15:31.999Z,3048
2017-06-16T10:16:32.005Z,3276
2017-06-16T10:17:31.700Z,3788
2017-06-16T10:18:32.003Z,4012
2017-06-16T10:19:31.696Z,4204
2017-06-16T10:20:32.007Z,4180
2017-06-16T10:21:31.395Z,4320
2017-06-16T10:22:32.008Z,4516
2017-06-16T10:23:32.014Z,4536
2017-06-16T10:24:32.010Z,4416
2017-06-16T10:25:32.010Z,3836
2017-06-16T10:26:31.707Z,3388
2017-06-16T10:27:31.708Z,3168
2017-06-16T10:28:32.015Z,3440
2017-06-16T10:29:32.015Z,3184
2017-06-16T10:30:32.011Z,2432
2017-06-16T10:31:31.712Z,2520
2017-06-16T10:32:31.708Z,2476
2017-06-16T10:33:31.404Z,2684
2017-06-16T10:34:32.016Z,2728
2017-06-16T10:35:32.016Z,2972
2017-06-16T10:36:32.020Z,3488
2017-06-16T10:37:31.410Z,3776
2017-06-16T10:38:32.019Z,3556
2017-06-16T10:39:32.020Z,3856
2017-06-16T10:40:32.020Z,3880
2017-06-16T10:41:31.714Z,3436
2017-06-16T10:42:32.018Z,4012
2017-06-16T10:43:32.024Z,4052
2017-06-16T10:44:32.026Z,4048
2017-06-16T10:45:32.024Z,3788
2017-06-16T10:46:32.022Z,3292
2017-06-16T10:47:31.717Z,3012
2017-06-16T10:48:32.023Z,3400
2017-06-16T10:49:32.021Z,3596
2017-06-16T10:50:31.719Z,3628
2017-06-16T10:51:31.724Z,3660
2017-06-16T10:52:32.028Z,3700
2017-06-16T10:53:32.028Z,3600
2017-06-16T10:54:31.722Z,3644
2017-06-16T10:55:31.728Z,3872
2017-06-16T10:56:31.724Z,3680
2017-06-16T10:57:32.033Z,3636
2017-06-16T10:58:31.723Z,3624
2017-06-16T10:59:32.032Z,4028
2017-06-16T11:00:31.728Z,3896
2017-06-16T11:01:32.034Z,3668
2017-06-16T11:02:31.729Z,3460
2017-06-16T11:03:31.727Z,3236
2017-06-16T11:04:31.727Z,3256
2017-06-16T11:05:32.032Z,3332
2017-06-16T11:06:31.726Z,3416
2017-06-16T11:07:31.729Z,3924
2017-06-16T11:08:31.730Z,4168
2017-06-16T11:09:32.039Z,3984
2017-06-16T11:10:31.117Z,3924
2017-06-16T11:11:31.737Z,4380
2017-06-16T11:12:32.043Z,4412
2017-06-16T11:13:31.426Z,4504
2017-06-16T11:14:32.046Z,4508
2017-06-16T11:15:32.043Z,4308
2017-06-16T11:16:31.735Z,3772
2017-06-16T11:17:32.038Z,3392
2017-06-16T11:18:32.041Z,3208
2017-06-16T11:19:32.040Z,3152
2017-06-16T11:20:31.751Z,3376
2017-06-16T11:21:32.048Z,3432
2017-06-16T11:22:32.050Z,3220
2017-06-16T11:23:32.051Z,3300
2017-06-16T11:24:31.438Z,3708
2017-06-16T11:25:32.049Z,3724
2017-06-16T11:26:32.053Z,3580
2017-06-16T11:27:32.053Z,3692
2017-06-16T11:28:32.048Z,3984
2017-06-16T11:29:31.747Z,3848
2017-06-16T11:30:32.052Z,3816
2017-06-16T11:31:32.094Z,3948
2017-06-16T11:32:32.057Z,3852
2017-06-16T11:33:32.053Z,3896
2017-06-16T11:34:32.057Z,3792
2017-06-16T11:35:32.051Z,3444
2017-06-16T11:36:32.064Z,3452
2017-06-16T11:37:32.059Z,3552
2017-06-16T11:38:31.749Z,3748
2017-06-16T11:39:32.056Z,3824
2017-06-16T11:40:32.054Z,4020
2017-06-16T11:41:31.442Z,4048
2017-06-16T11:42:32.063Z,3524
2017-06-16T11:43:32.058Z,2620
2017-06-16T11:44:32.058Z,2664
2017-06-16T11:45:31.757Z,2816
2017-06-16T11:46:31.752Z,2928
2017-06-16T11:47:31.759Z,2564
2017-06-16T11:48:31.448Z,2320
2017-06-16T11:49:31.762Z,2180
2017-06-16T11:50:31.759Z,2092
2017-06-16T11:51:32.064Z,2272
2017-06-16T11:52:32.066Z,2680
2017-06-16T11:53:32.066Z,3000
2017-06-16T11:54:31.761Z,2944
2017-06-16T11:55:31.455Z,2976
2017-06-16T11:56:32.068Z,3260
2017-06-16T11:57:32.068Z,2876
2017-06-16T11:58:31.767Z,2984
2017-06-16T11:59:31.765Z,3440
2017-06-16T12:00:32.084Z,3384
2017-06-16T12:01:31.767Z,3116
2017-06-16T12:02:31.771Z,3008
2017-06-16T12:03:31.769Z,3008
2017-06-16T12:04:32.071Z,2852
2017-06-16T12:05:31.766Z,2660
2017-06-16T12:06:32.071Z,2576
2017-06-16T12:07:31.770Z,2628
2017-06-16T12:08:31.461Z,2692
2017-06-16T12:09:32.076Z,2552
2017-06-16T12:10:32.077Z,2368
2017-06-16T12:11:31.767Z,2488
2017-06-16T12:12:31.463Z,2804
2017-06-16T12:13:31.767Z,3328
2017-06-16T12:14:31.781Z,3276
2017-06-16T12:15:32.082Z,2856
2017-06-16T12:16:31.774Z,2340
2017-06-16T12:17:31.774Z,2008
2017-06-16T12:18:32.085Z,1796
2017-06-16T12:19:32.077Z,1696
2017-06-16T12:20:31.780Z,1632
2017-06-16T12:21:31.785Z,1592
2017-06-16T12:22:31.988Z,1568
2017-06-16T12:23:32.078Z,1516
2017-06-16T12:24:31.779Z,1496
2017-06-16T12:25:31.784Z,1544
2017-06-16T12:26:31.796Z,1672
2017-06-16T12:27:32.088Z,1996
2017-06-16T12:28:32.084Z,2416
2017-06-16T12:29:31.777Z,2720
2017-06-16T12:30:31.779Z,3104
2017-06-16T12:31:32.087Z,2976
2017-06-16T12:32:32.088Z,2536
2017-06-16T12:33:32.085Z,2184
2017-06-16T12:34:31.780Z,1924
2017-06-16T12:35:32.085Z,1732
2017-06-16T12:36:32.090Z,1596
2017-06-16T12:37:32.089Z,1520
2017-06-16T12:38:32.086Z,1468
2017-06-16T12:39:32.089Z,1416
2017-06-16T12:40:32.089Z,1372
2017-06-16T12:41:32.085Z,1304
2017-06-16T12:42:31.784Z,1352
2017-06-16T12:43:31.781Z,1348
2017-06-16T12:44:32.093Z,1340
2017-06-16T12:45:32.087Z,1336
2017-06-16T12:46:32.092Z,1388
2017-06-16T12:47:31.475Z,1512
2017-06-16T12:48:32.094Z,1672
2017-06-16T12:49:32.091Z,1588
2017-06-16T12:50:32.092Z,1568
2017-06-16T12:51:32.093Z,1496
2017-06-16T12:52:32.100Z,1644
2017-06-16T12:53:32.096Z,1864
2017-06-16T12:54:32.092Z,1880
2017-06-16T12:55:32.089Z,1860
2017-06-16T12:56:32.094Z,1812
2017-06-16T12:57:32.095Z,1736
2017-06-16T12:58:32.091Z,1676
2017-06-16T12:59:31.790Z,1608
2017-06-16T13:00:31.786Z,1520
2017-06-16T13:01:32.096Z,1416
2017-06-16T13:02:32.094Z,1380
2017-06-16T13:03:31.786Z,1352
2017-06-16T13:04:32.091Z,1392
2017-06-16T13:05:31.784Z,1392
2017-06-16T13:06:32.093Z,1400
2017-06-16T13:07:31.786Z,1484
2017-06-16T13:08:31.786Z,1560
2017-06-16T13:09:31.788Z,1536
2017-06-16T13:10:31.785Z,1560
2017-06-16T13:11:32.094Z,1608
2017-06-16T13:12:31.787Z,1664
2017-06-16T13:13:31.791Z,1636
2017-06-16T13:14:31.790Z,1500
2017-06-16T13:15:31.786Z,1392
2017-06-16T13:16:31.793Z,1380
2017-06-16T13:17:32.099Z,1428
2017-06-16T13:18:31.788Z,1488
2017-06-16T13:19:31.794Z,1472
2017-06-16T13:20:32.102Z,1572
2017-06-16T13:21:31.805Z,1604
2017-06-16T13:22:32.098Z,1624
2017-06-16T13:23:32.094Z,1628
2017-06-16T13:24:31.792Z,1572
2017-06-16T13:25:32.095Z,1500
2017-06-16T13:26:31.790Z,1556
2017-06-16T13:27:31.791Z,1540
2017-06-16T13:28:32.101Z,1556
2017-06-16T13:29:32.098Z,1620
2017-06-16T13:30:32.101Z,1672
2017-06-16T13:31:31.798Z,1744
2017-06-16T13:32:31.791Z,1788
2017-06-16T13:33:31.487Z,1848
2017-06-16T13:34:31.788Z,1884
2017-06-16T13:35:32.104Z,1796
2017-06-16T13:36:31.792Z,1728
2017-06-16T13:37:31.797Z,1684
2017-06-16T13:38:31.792Z,1624
2017-06-16T13:39:32.097Z,1620
2017-06-16T13:40:32.098Z,1656
2017-06-16T13:41:32.098Z,1728
2017-06-16T13:42:31.486Z,1772
2017-06-16T13:43:32.101Z,1816